Time;durP1;ratioP1;P1;durP2;ratioP2;P2;SDS_P1;SDS_P2;PMS_P1;PMS_P2;Temp;Humidity;BMP_temperature;BMP_pressure;BME280_temperature;BME280_humidity;BME280_pressure;Samples;Min_cycle;Max_cycle;Signal;HPM_P1;HPM_P2
2023/06/04 00:01:08;;;;;;;2.25;1.40;;;19.70;55.20;;;;;;5000062;28;20060;-63
2023/06/04 00:03:34;;;;;;;2.20;1.50;;;19.70;55.40;;;;;;4999345;28;20116;-65
2023/06/04 00:06:00;;;;;;;3.63;1.98;;;19.70;55.40;;;;;;5000530;28;20059;-65
2023/06/04 00:08:26;;;;;;;2.00;1.75;;;19.70;55.50;;;;;;4993385;28;21067;-64
2023/06/04 00:10:51;;;;;;;1.58;1.42;;;19.70;55.40;;;;;;4994052;28;20034;-66
2023/06/04 00:13:17;;;;;;;3.42;1.50;;;19.70;55.40;;;;;;4995473;28;20089;-65
2023/06/04 00:15:43;;;;;;;2.25;1.88;;;19.70;55.30;;;;;;5000042;28;20560;-63
2023/06/04 00:18:10;;;;;;;1.90;1.33;;;19.70;55.30;;;;;;5000936;28;20037;-64
2023/06/04 00:20:36;;;;;;;2.83;1.90;;;19.70;55.30;;;;;;5002850;28;20029;-66
2023/06/04 00:23:02;;;;;;;2.28;1.48;;;19.70;55.40;;;;;;5001593;28;20030;-65
2023/06/04 00:25:27;;;;;;;2.75;2.28;;;19.70;55.60;;;;;;5003382;28;20048;-61
2023/06/04 00:27:52;;;;;;;1.52;1.40;;;19.70;55.30;;;;;;5001178;28;20100;-65
2023/06/04 00:30:18;;;;;;;1.98;1.45;;;19.70;55.70;;;;;;4998800;28;20456;-65
2023/06/04 00:32:43;;;;;;;2.60;1.60;;;19.70;55.30;;;;;;4999214;28;20476;-64
2023/06/04 00:35:09;;;;;;;2.20;1.73;;;19.70;55.40;;;;;;4998099;28;20038;-65
2023/06/04 00:37:35;;;;;;;2.83;1.63;;;19.70;55.60;;;;;;4992063;28;20026;-65
2023/06/04 00:40:01;;;;;;;2.15;1.83;;;19.70;55.40;;;;;;4996757;28;20034;-64
2023/06/04 00:42:26;;;;;;;2.13;1.92;;;19.70;55.50;;;;;;4994988;28;20031;-64
2023/06/04 00:44:52;;;;;;;1.77;1.60;;;19.70;55.40;;;;;;4997937;28;20413;-65
2023/06/04 00:47:19;;;;;;;1.60;1.48;;;19.70;55.40;;;;;;4994269;28;20092;-65
2023/06/04 00:49:45;;;;;;;2.78;1.55;;;19.70;55.40;;;;;;5003138;28;20121;-65
2023/06/04 00:52:13;;;;;;;1.58;1.48;;;19.70;55.40;;;;;;5001207;28;20121;-65
2023/06/04 00:54:39;;;;;;;2.78;1.98;;;19.70;55.50;;;;;;4999659;28;20036;-66
2023/06/04 00:57:06;;;;;;;2.20;1.80;;;19.70;56.00;;;;;;4999629;28;20302;-65
2023/06/04 00:59:32;;;;;;;2.17;1.63;;;19.70;55.50;;;;;;4998960;28;20042;-65
2023/06/04 01:02:14;;;;;;;2.30;1.48;;;19.70;55.80;;;;;;4998748;28;20037;-64
2023/06/04 01:04:50;;;;;;;2.08;1.58;;;19.70;55.60;;;;;;4997040;28;20038;-65
2023/06/04 01:07:17;;;;;;;3.08;1.70;;;19.70;55.60;;;;;;4979405;28;20056;-64
2023/06/04 01:09:44;;;;;;;2.42;1.55;;;19.70;55.30;;;;;;4996003;28;20105;-64
2023/06/04 01:12:10;;;;;;;1.90;1.52;;;19.70;55.50;;;;;;4996202;28;20046;-63
2023/06/04 01:14:36;;;;;;;3.20;1.60;;;19.70;55.50;;;;;;5002486;28;20084;-65
2023/06/04 01:17:13;;;;;;;2.08;1.48;;;19.60;55.70;;;;;;4995073;28;20022;-65
2023/06/04 01:20:13;;;;;;;2.20;1.40;;;19.60;55.60;;;;;;5001536;28;20398;-64
2023/06/04 01:22:56;;;;;;;1.85;1.60;;;19.60;55.60;;;;;;5001479;28;20026;-64
2023/06/04 01:25:25;;;;;;;2.80;1.70;;;19.60;55.70;;;;;;5000190;28;20389;-64
2023/06/04 01:27:56;;;;;;;1.70;1.50;;;19.60;55.70;;;;;;4998811;28;20127;-65
2023/06/04 01:30:27;;;;;;;2.15;1.55;;;19.60;55.80;;;;;;4995180;28;20544;-64
2023/06/04 01:32:54;;;;;;;1.25;1.08;;;19.60;55.50;;;;;;4993857;28;20062;-64
2023/06/04 01:35:20;;;;;;;1.98;1.33;;;19.60;55.50;;;;;;4994435;28;20042;-63
2023/06/04 01:37:46;;;;;;;2.47;1.60;;;19.60;55.70;;;;;;4991418;28;20022;-65
2023/06/04 01:40:12;;;;;;;2.10;1.23;;;19.60;56.20;;;;;;4996990;28;20036;-64
2023/06/04 01:42:37;;;;;;;2.05;1.50;;;19.60;55.50;;;;;;4993902;28;20102;-64
2023/06/04 01:45:03;;;;;;;2.22;1.65;;;19.60;55.60;;;;;;4995524;28;20400;-65
2023/06/04 01:47:29;;;;;;;1.88;1.40;;;19.60;55.80;;;;;;4997092;28;20038;-64
2023/06/04 01:49:54;;;;;;;1.98;1.50;;;19.60;55.70;;;;;;5002210;28;20107;-64
2023/06/04 01:52:21;;;;;;;1.63;1.42;;;19.60;55.70;;;;;;4999606;28;20038;-59
2023/06/04 01:54:48;;;;;;;1.35;1.13;;;19.60;55.70;;;;;;5000660;28;20503;-64
2023/06/04 01:57:14;;;;;;;2.63;1.40;;;19.60;55.70;;;;;;4997736;28;20504;-65
2023/06/04 01:59:41;;;;;;;2.20;1.50;;;19.60;55.70;;;;;;4997646;28;20034;-64
2023/06/04 02:02:06;;;;;;;1.20;1.02;;;19.50;55.60;;;;;;4994823;28;20057;-64
2023/06/04 02:04:32;;;;;;;2.65;1.20;;;19.60;55.90;;;;;;4997810;28;20026;-64
2023/06/04 02:06:59;;;;;;;1.40;1.30;;;19.60;55.80;;;;;;4992372;28;20046;-65
2023/06/04 02:09:25;;;;;;;3.17;1.30;;;19.60;55.70;;;;;;4989833;28;20042;-64
2023/06/04 02:11:51;;;;;;;1.45;1.33;;;19.60;56.00;;;;;;4992527;28;20038;-65
2023/06/04 02:14:17;;;;;;;1.48;1.30;;;19.50;55.90;;;;;;4993306;28;21168;-64
2023/06/04 02:16:42;;;;;;;3.22;1.25;;;19.60;55.70;;;;;;4998149;28;20042;-64
2023/06/04 02:19:08;;;;;;;1.80;1.20;;;19.50;55.80;;;;;;4998575;28;20439;-65
2023/06/04 02:21:33;;;;;;;1.80;1.42;;;19.50;55.70;;;;;;4999014;28;20022;-65
2023/06/04 02:23:58;;;;;;;1.65;1.10;;;19.50;55.90;;;;;;4998218;28;20026;-66
2023/06/04 02:26:24;;;;;;;1.42;1.08;;;19.50;55.70;;;;;;4997000;28;20026;-64
2023/06/04 02:28:50;;;;;;;1.30;1.20;;;19.50;55.90;;;;;;4995039;28;20112;-64
2023/06/04 02:31:16;;;;;;;2.33;1.30;;;19.50;55.80;;;;;;4993704;28;20165;-65
2023/06/04 02:33:41;;;;;;;2.72;1.38;;;19.50;55.80;;;;;;4995347;28;20030;-65
2023/06/04 02:36:08;;;;;;;1.20;1.00;;;19.50;55.70;;;;;;4990598;28;20042;-65
2023/06/04 02:38:34;;;;;;;1.77;1.00;;;19.50;55.90;;;;;;4991181;28;20497;-66
2023/06/04 02:41:00;;;;;;;1.98;1.73;;;19.50;55.90;;;;;;4994999;28;20096;-65
2023/06/04 02:43:25;;;;;;;1.63;1.52;;;19.50;56.00;;;;;;4992046;28;20042;-66
2023/06/04 02:45:51;;;;;;;1.20;1.10;;;19.50;55.80;;;;;;4996721;28;20124;-65
2023/06/04 02:48:16;;;;;;;1.35;1.00;;;19.50;56.00;;;;;;5000629;28;20101;-65
2023/06/04 02:50:45;;;;;;;1.05;0.95;;;19.50;55.70;;;;;;4998327;28;20502;-69
2023/06/04 02:53:11;;;;;;;1.92;1.33;;;19.50;55.90;;;;;;4996058;28;20113;-64
2023/06/04 02:55:36;;;;;;;2.30;1.23;;;19.50;55.70;;;;;;4994325;28;20212;-65
2023/06/04 02:58:02;;;;;;;2.42;1.13;;;19.50;55.70;;;;;;4994926;28;20053;-65
2023/06/04 03:00:28;;;;;;;2.42;2.13;;;19.50;55.70;;;;;;4996511;28;20041;-62
2023/06/04 03:03:00;;;;;;;1.42;1.00;;;19.50;55.70;;;;;;4997029;28;20493;-63
2023/06/04 03:05:26;;;;;;;8.40;1.60;;;19.50;55.90;;;;;;4993610;28;20026;-64
2023/06/04 03:07:53;;;;;;;1.30;1.20;;;19.50;56.10;;;;;;4998344;28;20030;-65
2023/06/04 03:10:18;;;;;;;2.72;1.23;;;19.50;56.10;;;;;;4998267;28;20042;-65
2023/06/04 03:12:44;;;;;;;1.23;1.10;;;19.50;55.90;;;;;;5000112;28;20096;-65
2023/06/04 03:15:10;;;;;;;2.10;1.35;;;19.50;56.00;;;;;;4999972;28;20058;-63
2023/06/04 03:17:35;;;;;;;2.65;1.42;;;19.50;55.90;;;;;;5000057;28;20467;-65
2023/06/04 03:20:01;;;;;;;2.10;1.30;;;19.50;55.90;;;;;;4997212;28;20118;-65
2023/06/04 03:22:28;;;;;;;2.20;1.30;;;19.50;56.00;;;;;;4996603;28;20414;-63
2023/06/04 03:24:53;;;;;;;2.70;1.33;;;19.50;56.10;;;;;;4995174;28;20038;-65
2023/06/04 03:27:19;;;;;;;1.63;1.00;;;19.40;55.90;;;;;;4996227;28;20045;-65
2023/06/04 03:29:45;;;;;;;1.48;1.33;;;19.40;55.90;;;;;;4991945;28;20565;-65
2023/06/04 03:32:12;;;;;;;2.60;1.45;;;19.40;55.90;;;;;;4995960;28;20118;-64
2023/06/04 03:34:38;;;;;;;1.40;1.20;;;19.40;55.90;;;;;;4991948;28;20092;-65
2023/06/04 03:37:03;;;;;;;1.33;1.20;;;19.40;55.80;;;;;;4990886;28;20030;-65
2023/06/04 03:39:29;;;;;;;2.42;1.50;;;19.50;55.80;;;;;;4990967;28;20469;-64
2023/06/04 03:41:55;;;;;;;1.98;1.20;;;19.50;55.90;;;;;;4997791;28;20560;-64
2023/06/04 03:44:21;;;;;;;1.40;1.10;;;19.50;55.80;;;;;;4998053;28;20026;-66
2023/06/04 03:46:47;;;;;;;2.25;1.10;;;19.50;55.90;;;;;;4998812;28;20038;-64
2023/06/04 03:49:13;;;;;;;1.70;1.30;;;19.50;56.00;;;;;;4996716;28;20104;-65
2023/06/04 03:51:40;;;;;;;2.20;1.30;;;19.50;55.90;;;;;;4994804;28;20042;-65
2023/06/04 03:54:05;;;;;;;1.80;1.35;;;19.50;55.80;;;;;;4994032;28;20034;-65
2023/06/04 03:56:31;;;;;;;1.23;1.13;;;19.50;55.80;;;;;;4995410;28;20401;-63
2023/06/04 03:58:57;;;;;;;3.50;1.20;;;19.40;55.80;;;;;;4997109;28;20026;-65
2023/06/04 04:01:25;;;;;;;1.95;1.35;;;19.50;55.70;;;;;;4997103;28;20100;-64
2023/06/04 04:03:52;;;;;;;1.08;0.95;;;19.50;55.90;;;;;;4991933;28;20030;-65
2023/06/04 04:06:18;;;;;;;1.40;1.30;;;19.50;56.00;;;;;;4995732;28;20066;-63
2023/06/04 04:08:44;;;;;;;1.98;1.20;;;19.40;55.80;;;;;;4998709;28;20061;-65
2023/06/04 04:11:16;;;;;;;1.63;0.95;;;19.50;55.80;;;;;;4993032;28;20031;-65
2023/06/04 04:13:42;;;;;;;1.70;1.38;;;19.50;55.80;;;;;;4998508;28;20508;-65
2023/06/04 04:16:07;;;;;;;1.30;0.90;;;19.50;55.70;;;;;;4999025;28;20034;-65
2023/06/04 04:18:36;;;;;;;1.67;0.98;;;19.50;55.80;;;;;;4996690;28;20041;-65
2023/06/04 04:21:04;;;;;;;1.85;1.20;;;19.40;55.90;;;;;;4996548;28;20030;-65
2023/06/04 04:23:31;;;;;;;1.50;1.20;;;19.50;56.00;;;;;;4994952;28;20050;-64
2023/06/04 04:25:58;;;;;;;1.42;1.15;;;19.40;55.90;;;;;;4999187;28;20065;-63
2023/06/04 04:28:24;;;;;;;1.60;1.42;;;19.40;55.80;;;;;;4997788;28;20026;-64
2023/06/04 04:30:50;;;;;;;1.85;1.50;;;19.40;55.90;;;;;;4990178;28;20618;-65
2023/06/04 04:33:16;;;;;;;1.88;1.40;;;19.40;55.90;;;;;;4995013;28;20026;-64
2023/06/04 04:35:42;;;;;;;1.38;1.13;;;19.40;55.80;;;;;;5000584;28;20042;-64
2023/06/04 04:38:09;;;;;;;1.90;1.33;;;19.50;55.90;;;;;;5001364;28;21603;-65
2023/06/04 04:40:35;;;;;;;1.63;1.05;;;19.50;55.50;;;;;;4997572;28;20052;-65
2023/06/04 04:43:01;;;;;;;2.65;1.30;;;19.50;55.60;;;;;;5000326;28;20034;-65
2023/06/04 04:45:26;;;;;;;1.30;1.20;;;19.60;55.60;;;;;;5000138;28;20041;-65
2023/06/04 04:47:51;;;;;;;1.20;1.02;;;19.60;55.50;;;;;;5001334;28;20061;-65
2023/06/04 04:50:17;;;;;;;1.63;1.20;;;19.60;55.40;;;;;;4998123;28;20057;-64
2023/06/04 04:52:43;;;;;;;2.20;0.95;;;19.60;55.30;;;;;;4997953;28;20165;-65
2023/06/04 04:55:09;;;;;;;1.70;1.20;;;19.70;55.30;;;;;;4995903;28;20049;-65
2023/06/04 04:57:34;;;;;;;1.45;0.95;;;19.70;55.50;;;;;;5002770;28;20361;-65
2023/06/04 05:00:00;;;;;;;1.35;0.90;;;19.70;55.50;;;;;;4994298;28;20034;-65
2023/06/04 05:02:26;;;;;;;1.25;1.02;;;19.70;55.60;;;;;;5002261;28;20145;-65
2023/06/04 05:04:51;;;;;;;2.50;1.23;;;19.70;55.50;;;;;;4998155;28;20508;-65
2023/06/04 05:07:17;;;;;;;1.30;1.20;;;19.70;55.50;;;;;;4997787;28;20128;-65
2023/06/04 05:09:42;;;;;;;2.05;1.00;;;19.70;55.60;;;;;;5002734;28;20041;-65
2023/06/04 05:12:08;;;;;;;2.17;1.17;;;19.70;55.50;;;;;;5002426;28;20029;-65
2023/06/04 05:14:35;;;;;;;1.33;0.95;;;19.70;55.50;;;;;;5000255;28;20227;-64
2023/06/04 05:17:04;;;;;;;1.55;1.00;;;19.70;55.50;;;;;;4999673;28;20032;-65
2023/06/04 05:19:32;;;;;;;2.22;1.20;;;19.70;55.60;;;;;;4999141;28;20038;-64
2023/06/04 05:21:59;;;;;;;1.33;0.80;;;19.70;55.50;;;;;;4996753;28;20019;-65
2023/06/04 05:24:24;;;;;;;1.63;0.85;;;19.70;55.60;;;;;;4997290;28;20133;-65
2023/06/04 05:26:50;;;;;;;1.55;0.90;;;19.70;55.60;;;;;;4996007;28;20113;-65
2023/06/04 05:29:15;;;;;;;1.00;0.90;;;19.80;55.60;;;;;;4993427;28;20025;-64
2023/06/04 05:31:41;;;;;;;1.10;1.00;;;19.80;55.60;;;;;;4998401;28;20112;-65
2023/06/04 05:34:06;;;;;;;2.75;0.90;;;19.80;55.80;;;;;;4996518;28;20045;-65
2023/06/04 05:36:32;;;;;;;1.20;1.08;;;19.70;55.70;;;;;;4993644;28;20504;-65
2023/06/04 05:38:57;;;;;;;1.55;1.08;;;19.80;55.70;;;;;;5001882;28;20132;-65
2023/06/04 05:41:24;;;;;;;1.38;1.10;;;19.80;55.60;;;;;;4998894;28;20042;-65
2023/06/04 05:43:50;;;;;;;2.00;1.40;;;19.70;55.70;;;;;;4999434;28;20488;-65
2023/06/04 05:46:15;;;;;;;1.10;1.00;;;19.70;55.70;;;;;;4999067;28;20030;-64
2023/06/04 05:48:41;;;;;;;1.48;1.10;;;19.80;55.70;;;;;;4996580;28;20489;-65
2023/06/04 05:51:06;;;;;;;2.78;1.27;;;19.80;55.70;;;;;;4995292;28;20029;-65
2023/06/04 05:53:33;;;;;;;1.20;1.00;;;19.80;55.70;;;;;;4995276;28;20046;-65
2023/06/04 05:55:58;;;;;;;1.40;1.10;;;19.70;55.70;;;;;;4993580;28;20034;-65
2023/06/04 05:58:24;;;;;;;1.30;1.13;;;19.80;55.80;;;;;;4993546;28;20436;-65
2023/06/04 06:00:51;;;;;;;1.48;1.33;;;19.80;55.60;;;;;;4996527;28;20433;-63
2023/06/04 06:03:16;;;;;;;2.45;1.13;;;19.80;55.70;;;;;;4997028;28;20041;-64
2023/06/04 06:05:43;;;;;;;1.42;1.20;;;19.70;55.70;;;;;;4997380;28;20088;-66
2023/06/04 06:08:08;;;;;;;1.95;1.30;;;19.70;55.80;;;;;;5002211;28;20058;-66
2023/06/04 06:10:34;;;;;;;1.30;1.20;;;19.80;55.70;;;;;;5000891;28;20061;-64
2023/06/04 06:13:02;;;;;;;2.17;1.17;;;19.70;55.60;;;;;;5001439;28;20037;-65
2023/06/04 06:15:31;;;;;;;1.95;1.30;;;19.70;55.50;;;;;;5000183;28;20038;-63
2023/06/04 06:17:56;;;;;;;1.67;1.35;;;19.70;55.60;;;;;;4997223;28;20041;-65
2023/06/04 06:20:22;;;;;;;2.15;1.52;;;19.70;55.60;;;;;;4997971;28;20030;-65
2023/06/04 06:22:48;;;;;;;1.92;1.42;;;19.70;55.60;;;;;;4997010;28;20037;-65
2023/06/04 06:25:15;;;;;;;2.25;1.40;;;19.70;55.50;;;;;;4992719;28;20033;-64
2023/06/04 06:27:41;;;;;;;1.98;1.10;;;19.70;55.50;;;;;;4994981;28;20044;-64
2023/06/04 06:30:07;;;;;;;2.08;1.35;;;19.70;55.60;;;;;;5003077;28;20042;-65
2023/06/04 06:32:33;;;;;;;2.05;1.85;;;19.70;55.50;;;;;;4995281;28;20035;-65
2023/06/04 06:34:58;;;;;;;1.67;1.55;;;19.70;55.60;;;;;;4998367;28;20088;-65
2023/06/04 06:37:24;;;;;;;1.40;1.30;;;19.70;56.20;;;;;;5000565;28;20038;-65
2023/06/04 06:39:50;;;;;;;1.88;1.65;;;19.70;55.60;;;;;;5000319;28;20470;-65
2023/06/04 06:42:17;;;;;;;2.67;1.50;;;19.70;55.50;;;;;;5000672;28;20022;-65
2023/06/04 06:44:43;;;;;;;1.90;1.52;;;19.70;55.60;;;;;;4998155;28;20057;-66
2023/06/04 06:47:10;;;;;;;1.67;1.20;;;19.70;55.60;;;;;;4997517;28;26300;-65
2023/06/04 06:49:35;;;;;;;1.95;1.40;;;19.70;55.60;;;;;;4994443;28;20430;-65
2023/06/04 06:52:01;;;;;;;1.65;1.15;;;19.70;55.60;;;;;;4998259;28;20045;-65
2023/06/04 06:54:26;;;;;;;1.40;1.10;;;19.70;55.70;;;;;;4999871;28;20113;-64
2023/06/04 06:56:52;;;;;;;1.83;1.40;;;19.70;55.70;;;;;;4995428;28;20085;-69
2023/06/04 06:59:18;;;;;;;1.98;1.25;;;19.70;55.80;;;;;;4997110;28;20149;-63
2023/06/04 07:01:43;;;;;;;1.98;1.23;;;19.70;55.90;;;;;;4998067;28;20030;-64
2023/06/04 07:04:09;;;;;;;3.38;1.10;;;19.70;56.00;;;;;;4998132;28;20034;-68
2023/06/04 07:06:36;;;;;;;3.75;1.42;;;19.70;56.00;;;;;;5001006;28;20035;-66
2023/06/04 07:09:03;;;;;;;2.03;1.83;;;19.70;56.00;;;;;;4999095;28;20639;-67
2023/06/04 07:11:28;;;;;;;3.72;1.67;;;19.70;56.20;;;;;;4999185;28;20044;-64
2023/06/04 07:13:54;;;;;;;3.53;1.48;;;19.70;56.20;;;;;;4998816;28;20022;-65
2023/06/04 07:16:20;;;;;;;2.63;1.50;;;19.70;56.50;;;;;;4998617;28;20038;-66
2023/06/04 07:18:47;;;;;;;3.90;1.35;;;19.60;56.30;;;;;;4996839;28;20528;-65
2023/06/04 07:21:13;;;;;;;2.53;1.55;;;19.70;56.30;;;;;;4995726;28;20031;-65
2023/06/04 07:23:38;;;;;;;3.40;1.33;;;19.60;56.40;;;;;;4995140;28;20404;-63
2023/06/04 07:26:04;;;;;;;2.40;1.50;;;19.70;56.40;;;;;;4996230;28;20037;-65
2023/06/04 07:28:30;;;;;;;3.55;2.00;;;19.60;56.50;;;;;;4994749;28;20041;-64
2023/06/04 07:30:55;;;;;;;4.63;1.10;;;19.60;56.70;;;;;;4998209;28;20121;-66
2023/06/04 07:33:21;;;;;;;3.92;1.35;;;19.60;56.70;;;;;;5001669;28;20061;-65
2023/06/04 07:35:46;;;;;;;4.65;1.60;;;19.60;56.80;;;;;;5002353;28;20661;-65
2023/06/04 07:38:12;;;;;;;3.22;1.48;;;19.60;56.70;;;;;;5000880;28;20068;-65
2023/06/04 07:40:37;;;;;;;3.83;1.63;;;19.60;56.70;;;;;;5001795;28;20088;-65
2023/06/04 07:43:03;;;;;;;2.45;1.40;;;19.60;56.60;;;;;;5001198;28;20066;-64
2023/06/04 07:45:30;;;;;;;3.22;1.70;;;19.60;56.60;;;;;;5000301;28;20030;-63
2023/06/04 07:47:56;;;;;;;2.67;1.40;;;19.60;56.60;;;;;;4999960;28;20026;-65
2023/06/04 07:50:21;;;;;;;2.80;1.58;;;19.60;56.70;;;;;;4997501;28;20561;-65
2023/06/04 07:52:47;;;;;;;2.20;1.55;;;19.60;56.50;;;;;;4993287;28;20049;-65
2023/06/04 07:55:12;;;;;;;1.80;1.65;;;19.60;56.60;;;;;;5000385;28;20034;-59
2023/06/04 07:57:38;;;;;;;2.72;1.63;;;19.50;56.40;;;;;;4997774;28;20253;-65
2023/06/04 08:00:04;;;;;;;4.55;1.60;;;19.60;56.50;;;;;;4991079;28;20057;-65
2023/06/04 08:02:30;;;;;;;3.55;1.48;;;19.60;56.30;;;;;;4998123;28;20050;-66
2023/06/04 08:04:56;;;;;;;3.65;1.40;;;19.50;56.20;;;;;;5000581;28;20026;-64
2023/06/04 08:07:21;;;;;;;4.22;1.48;;;19.60;56.20;;;;;;4997254;28;20095;-65
2023/06/04 08:09:47;;;;;;;4.25;1.40;;;19.50;56.10;;;;;;5000444;28;20034;-65
2023/06/04 08:12:13;;;;;;;2.58;1.88;;;19.50;56.10;;;;;;4997235;28;20363;-60
2023/06/04 08:14:38;;;;;;;3.42;1.50;;;19.50;55.90;;;;;;4996858;28;20492;-65
2023/06/04 08:17:04;;;;;;;2.10;1.52;;;19.50;56.10;;;;;;4997282;28;20042;-65
2023/06/04 08:19:29;;;;;;;2.08;1.35;;;19.50;55.60;;;;;;4992650;28;20122;-65
2023/06/04 08:21:55;;;;;;;5.10;1.70;;;19.50;55.70;;;;;;4995173;28;20080;-62
2023/06/04 08:24:21;;;;;;;2.17;1.17;;;19.50;55.70;;;;;;4998766;28;20397;-64
2023/06/04 08:26:47;;;;;;;3.00;1.27;;;19.50;55.80;;;;;;4998275;28;21385;-59
2023/06/04 08:29:12;;;;;;;2.00;1.25;;;19.50;55.50;;;;;;4996222;28;20038;-58
2023/06/04 08:31:39;;;;;;;3.00;1.35;;;19.50;55.50;;;;;;5002574;28;20030;-64
2023/06/04 08:34:05;;;;;;;2.13;1.42;;;19.50;55.50;;;;;;5001261;28;20969;-64
2023/06/04 08:36:32;;;;;;;2.15;1.35;;;19.50;55.30;;;;;;4998250;28;20042;-65
2023/06/04 08:38:58;;;;;;;2.88;1.40;;;19.50;55.60;;;;;;4999964;28;20052;-64
2023/06/04 08:41:51;;;;;;;4.05;1.27;;;19.50;55.40;;;;;;5001608;28;20612;-65
2023/06/04 08:44:17;;;;;;;1.30;1.13;;;19.50;55.50;;;;;;4995629;28;20417;-62
2023/06/04 08:46:44;;;;;;;2.00;1.42;;;19.50;55.40;;;;;;4998797;28;20278;-60
2023/06/04 08:49:12;;;;;;;1.50;1.20;;;19.40;55.50;;;;;;4997407;28;20038;-65
2023/06/04 08:51:38;;;;;;;4.45;1.52;;;19.50;55.40;;;;;;4997900;28;20042;-65
2023/06/04 08:54:05;;;;;;;1.60;1.25;;;19.50;55.40;;;;;;4998172;28;20053;-59
2023/06/04 08:56:32;;;;;;;2.08;1.55;;;19.50;55.40;;;;;;4999167;28;20064;-65
2023/06/04 08:59:02;;;;;;;3.00;1.45;;;19.50;55.60;;;;;;4995598;28;20027;-64
2023/06/04 09:01:27;;;;;;;1.20;1.00;;;19.50;55.50;;;;;;5001573;28;20392;-62
2023/06/04 09:03:55;;;;;;;1.50;1.20;;;19.50;55.50;;;;;;4998658;28;20026;-65
2023/06/04 09:06:22;;;;;;;1.50;1.30;;;19.40;55.40;;;;;;4998159;28;20539;-59
2023/06/04 09:08:48;;;;;;;3.00;1.30;;;19.50;55.50;;;;;;4999895;28;20045;-65
2023/06/04 09:11:15;;;;;;;1.88;1.13;;;19.40;55.70;;;;;;4999018;28;20499;-65
2023/06/04 09:13:43;;;;;;;2.10;1.13;;;19.50;55.70;;;;;;5000217;28;20037;-65
2023/06/04 09:16:08;;;;;;;4.25;1.20;;;19.40;55.60;;;;;;4997772;28;20046;-59
2023/06/04 09:18:34;;;;;;;6.40;1.30;;;19.40;55.60;;;;;;4993555;28;20031;-65
2023/06/04 09:21:07;;;;;;;1.75;1.30;;;19.40;55.70;;;;;;4995335;28;20412;-65
2023/06/04 09:23:44;;;;;;;3.00;1.50;;;19.40;55.60;;;;;;4995972;28;20129;-65
2023/06/04 09:26:10;;;;;;;2.30;1.30;;;19.40;55.70;;;;;;4997244;28;20030;-65
2023/06/04 09:28:40;;;;;;;2.05;1.10;;;19.40;55.70;;;;;;4997256;28;20170;-65
2023/06/04 09:31:15;;;;;;;1.90;1.13;;;19.40;55.70;;;;;;5000807;28;20038;-61
2023/06/04 09:33:48;;;;;;;1.43;1.33;;;19.40;55.70;;;;;;4999148;28;20026;-61
2023/06/04 09:36:14;;;;;;;1.67;1.30;;;19.40;55.80;;;;;;5000877;28;20074;-65
2023/06/04 09:38:40;;;;;;;2.00;1.42;;;19.40;55.80;;;;;;5002176;28;20425;-61
2023/06/04 09:41:13;;;;;;;2.22;1.10;;;19.40;55.80;;;;;;4999455;28;21095;-64
2023/06/04 09:43:40;;;;;;;2.88;1.35;;;19.40;55.80;;;;;;4999352;28;20100;-64
2023/06/04 09:46:10;;;;;;;1.35;0.90;;;19.40;55.90;;;;;;4997784;28;20117;-65
2023/06/04 09:48:36;;;;;;;3.00;1.17;;;19.40;55.90;;;;;;4996219;28;20041;-58
2023/06/04 09:51:15;;;;;;;2.17;1.05;;;19.40;55.90;;;;;;4997919;28;20035;-65
2023/06/04 09:53:41;;;;;;;1.98;1.17;;;19.40;55.90;;;;;;4997828;28;20045;-59
2023/06/04 09:56:08;;;;;;;1.48;1.38;;;19.40;55.90;;;;;;5000056;28;20169;-61
2023/06/04 09:58:35;;;;;;;1.77;1.30;;;19.40;56.60;;;;;;4998111;28;20486;-59
2023/06/04 10:01:03;;;;;;;1.50;1.20;;;19.40;55.90;;;;;;4999666;28;20085;-65
2023/06/04 10:03:36;;;;;;;1.63;1.00;;;19.40;56.10;;;;;;4998740;28;20042;-65
2023/06/04 10:06:06;;;;;;;2.03;1.05;;;19.40;56.00;;;;;;4999038;28;20034;-64
2023/06/04 10:08:33;;;;;;;1.83;1.10;;;19.40;56.00;;;;;;5000796;28;20069;-65
2023/06/04 10:11:01;;;;;;;1.50;1.20;;;19.40;56.00;;;;;;4997514;28;20052;-65
2023/06/04 10:13:28;;;;;;;1.70;1.20;;;19.40;56.00;;;;;;4994638;28;20437;-65
2023/06/04 10:16:00;;;;;;;2.40;1.00;;;19.40;56.10;;;;;;4994742;28;20065;-66
2023/06/04 10:18:28;;;;;;;1.40;1.08;;;19.40;56.10;;;;;;5002534;28;20617;-65
2023/06/04 10:20:55;;;;;;;4.35;1.20;;;19.40;56.10;;;;;;4996694;28;20030;-59
2023/06/04 10:23:22;;;;;;;3.10;0.90;;;19.40;56.20;;;;;;4993093;28;20040;-65
2023/06/04 10:25:50;;;;;;;2.15;1.05;;;19.40;56.20;;;;;;4997529;28;20102;-64
2023/06/04 10:28:17;;;;;;;2.53;1.10;;;19.40;56.70;;;;;;4996114;28;20033;-65
2023/06/04 10:30:43;;;;;;;1.85;1.00;;;19.40;56.90;;;;;;4996942;28;20119;-65
2023/06/04 10:33:09;;;;;;;3.67;1.30;;;19.40;57.10;;;;;;4996145;28;20116;-60
2023/06/04 10:35:36;;;;;;;2.88;1.15;;;19.40;57.10;;;;;;4993393;28;20060;-64
2023/06/04 10:38:07;;;;;;;14.55;2.95;;;19.50;57.30;;;;;;4997316;28;20026;-62
2023/06/04 10:40:33;;;;;;;9.73;1.50;;;19.50;57.60;;;;;;4996325;28;20660;-65
2023/06/04 10:43:08;;;;;;;5.75;1.60;;;19.50;57.60;;;;;;4995792;28;20034;-64
2023/06/04 10:45:34;;;;;;;;;;;19.50;57.40;;;;;;4995580;28;20033;-64
2023/06/04 10:48:01;;;;;;;6.05;1.50;;;19.50;57.30;;;;;;4993481;28;19910;-65
2023/06/04 10:50:27;;;;;;;4.75;1.75;;;19.50;57.20;;;;;;4997337;28;20057;-59
2023/06/04 10:52:54;;;;;;;2.17;1.10;;;19.50;57.20;;;;;;4994100;28;20294;-60
2023/06/04 10:55:20;;;;;;;7.85;1.50;;;19.50;57.10;;;;;;4994452;28;20041;-64
2023/06/04 10:57:57;;;;;;;10.35;1.80;;;19.50;57.20;;;;;;4994778;28;20027;-64
2023/06/04 11:00:38;;;;;;;7.85;1.70;;;19.50;57.30;;;;;;4994254;28;20497;-65
2023/06/04 11:03:07;;;;;;;4.30;1.50;;;19.50;57.50;;;;;;4993331;28;20100;-64
2023/06/04 11:05:39;;;;;;;5.45;1.40;;;19.50;57.50;;;;;;4994638;28;20044;-64
2023/06/04 11:08:05;;;;;;;3.03;1.38;;;19.50;57.60;;;;;;4999497;28;20496;-64
2023/06/04 11:10:43;;;;;;;5.25;1.42;;;19.50;57.60;;;;;;4995216;28;20401;-64
2023/06/04 11:13:08;;;;;;;4.85;1.30;;;19.50;57.60;;;;;;4995363;28;20034;-65
2023/06/04 11:15:45;;;;;;;2.35;1.02;;;19.50;57.70;;;;;;4999403;28;20038;-61
2023/06/04 11:18:19;;;;;;;3.28;0.95;;;19.50;57.60;;;;;;4993884;28;20037;-64
2023/06/04 11:20:46;;;;;;;5.57;1.27;;;19.50;57.60;;;;;;4994803;28;20039;-64
2023/06/04 11:23:13;;;;;;;3.35;1.42;;;19.50;57.60;;;;;;4996516;28;20133;-59
2023/06/04 11:25:39;;;;;;;3.22;1.05;;;19.50;57.60;;;;;;4992949;28;20084;-64
2023/06/04 11:28:04;;;;;;;2.85;1.23;;;19.50;57.60;;;;;;4996709;28;20169;-65
2023/06/04 11:30:30;;;;;;;5.43;1.45;;;19.50;57.50;;;;;;4994775;28;20034;-64
2023/06/04 11:33:06;;;;;;;5.68;0.85;;;19.50;57.50;;;;;;4995733;28;20035;-65
2023/06/04 11:35:40;;;;;;;3.08;1.27;;;19.50;57.40;;;;;;4995290;28;20038;-62
2023/06/04 11:38:05;;;;;;;3.50;1.13;;;19.50;57.40;;;;;;4998017;28;20026;-64
2023/06/04 11:40:31;;;;;;;3.88;1.25;;;19.50;57.40;;;;;;4995076;28;20248;-64
2023/06/04 11:42:57;;;;;;;1.52;0.82;;;19.50;57.40;;;;;;4996115;28;20026;-63
2023/06/04 11:45:23;;;;;;;3.42;0.90;;;19.50;57.30;;;;;;4994080;28;20053;-64
2023/06/04 11:47:56;;;;;;;2.45;0.90;;;19.50;57.30;;;;;;4995820;28;20036;-64
2023/06/04 11:50:23;;;;;;;1.83;0.80;;;19.50;57.30;;;;;;5002003;28;20030;-66
2023/06/04 11:52:49;;;;;;;2.90;0.95;;;19.50;57.30;;;;;;4993138;28;20034;-63
2023/06/04 11:55:18;;;;;;;1.85;0.90;;;19.50;57.30;;;;;;4999692;28;20589;-64
2023/06/04 11:57:43;;;;;;;4.35;1.17;;;19.50;57.00;;;;;;5000346;28;20372;-62
2023/06/04 12:00:10;;;;;;;2.60;1.25;;;19.50;56.60;;;;;;4998847;28;20109;-63
2023/06/04 12:02:36;;;;;;;4.07;2.15;;;19.50;56.60;;;;;;4996602;28;20036;-63
2023/06/04 12:05:15;;;;;;;2.42;1.38;;;19.50;57.30;;;;;;4998180;28;20293;-63
2023/06/04 12:07:41;;;;;;;1.88;1.50;;;19.50;56.60;;;;;;5001175;28;20410;-64
2023/06/04 12:10:17;;;;;;;2.22;1.40;;;19.50;56.70;;;;;;5000772;28;20138;-64
2023/06/04 12:12:42;;;;;;;2.75;1.15;;;19.50;56.70;;;;;;5002582;28;20030;-63
2023/06/04 12:15:09;;;;;;;1.40;1.20;;;19.50;56.60;;;;;;5000692;28;20048;-65
2023/06/04 12:17:37;;;;;;;2.45;1.30;;;19.50;56.60;;;;;;5002570;28;20026;-65
2023/06/04 12:20:02;;;;;;;3.63;1.20;;;19.50;56.40;;;;;;5002156;28;20034;-63
2023/06/04 12:22:28;;;;;;;2.83;1.70;;;19.50;56.40;;;;;;5001727;28;20351;-63
2023/06/04 12:24:57;;;;;;;4.43;1.50;;;19.50;56.20;;;;;;4996215;28;20034;-63
2023/06/04 12:27:23;;;;;;;2.05;1.20;;;19.50;56.20;;;;;;4999818;28;20042;-62
2023/06/04 12:29:58;;;;;;;3.40;1.40;;;19.50;56.30;;;;;;4998147;28;20041;-61
2023/06/04 12:32:24;;;;;;;3.70;1.83;;;19.50;56.20;;;;;;4996398;28;20038;-63
2023/06/04 12:34:50;;;;;;;3.90;1.35;;;19.50;56.30;;;;;;5000102;28;20420;-63
2023/06/04 12:37:15;;;;;;;4.25;1.52;;;19.50;56.20;;;;;;5002575;28;20064;-64
2023/06/04 12:39:41;;;;;;;3.30;1.33;;;19.50;56.40;;;;;;4999937;28;20045;-63
2023/06/04 12:42:08;;;;;;;3.95;1.83;;;19.50;56.30;;;;;;5001213;28;20030;-64
2023/06/04 12:44:35;;;;;;;3.60;1.38;;;19.50;56.40;;;;;;5004516;28;20229;-63
2023/06/04 12:47:01;;;;;;;4.25;1.10;;;19.50;56.30;;;;;;5003748;28;20494;-62